Meath Environmental Platform

Observations for Trim Market St

Time AQI Temp °C Hum % Pres Pa CO μg/m³ H₂S μg/m³ NO μg/m³ NO₂ μg/m³ O₃ μg/m³ SO₂ μg/m³ PM1 μg/m³ PM2.5 μg/m³ PM10 μg/m³
Monday 17 August 2026
02:54 2 18.5 78 2,147,483,647 0.01 0 1.82 3.42 54.54 0 0 1.25 3.48
02:53 2 18.6 78 2,147,483,647 0.01 0 1.82 3.05 52.04 0 0 0.77 2.9
02:52 2 18.6 78 2,147,483,647 0.02 0 1.84 3.09 49.69 0 0 0.77 4.06
02:49 2 18.6 78 2,147,483,647 0.01 0 1.85 3.14 51.66 0 0 1.25 3.48
02:47 2 18.6 78 2,147,483,647 0.01 0 1.79 3.1 50.55 0 0 0.78 2.9
02:46 2 18.6 78 2,147,483,647 0 0 1.78 3.19 52.11 0 0 0.78 2.9
02:41 2 18.7 78 2,147,483,647 0.01 0 1.73 3.06 51.22 0 0 1.25 3.48
02:38 2 18.7 78 2,147,483,647 0 0 1.67 2.99 55.23 0 0 1.26 4.05
02:34 2 18.7 78 2,147,483,647 0.01 0 1.68 3.35 56.84 0 0 0.78 2.89
02:33 2 18.7 78 2,147,483,647 0.01 0 1.73 3.14 50.01 0 0 0.78 2.89
02:32 2 18.8 78 2,147,483,647 0.01 0 1.73 2.78 52.54 0 0 0.78 2.89
02:31 2 18.8 78 2,147,483,647 0 0 1.81 3.01 53.75 0 0 0.79 2.89
02:30 2 18.8 78 2,147,483,647 0 0 1.83 2.67 52.35 0 0 0.78 2.89
02:29 2 18.8 78 2,147,483,647 0.01 0 1.83 3.15 52.96 0 0 1.26 3.47
02:28 2 18.7 78 2,147,483,647 0.02 0 1.82 3.49 52.23 0 0 0.79 2.89
02:27 2 18.8 78 2,147,483,647 0.02 0 1.82 3.46 49.96 0 0 0.79 2.89
02:26 2 18.8 78 2,147,483,647 0 0 1.77 2.78 51.96 0 0 0.79 2.89
02:25 2 18.8 78 2,147,483,647 0.01 0 1.74 2.98 53.2 0 0 0.79 2.89
02:24 2 18.8 78 2,147,483,647 0 0 1.71 2.95 50.89 0 0 1.26 3.47
02:23 2 18.8 78 2,147,483,647 0.01 0 1.78 2.82 52.68 0 0 0.79 2.89